Richvale, California
Current Conditions -  °F | °C
As of 7:53 AM on Monday 26 Jan 2015 (Local Time) from KOVE Reporting Station
Haze Haze  
Wind Chill: 38°   Ceiling: Unl
Heat Index: 41°   Visibility: 3mi
Dew Point: 39°   Wind: 5mph
Humidity: 93%   Direction: 280°W
Pressure: 30.1"   Gusts: NA
Location:  39.49°N, 121.75°W
Report Text: KOVE 261553Z AUTO 28004KT 3SM BR CLR 05/04 A3010 RMK AO2 SLP195 T00500039
Loading
Personal Weather Stations






























Interactive Weather Map New forecast layout! Learn more

10-Day Weather Forecast

Advertisements
Track Severe Weather on mobile